Time;durP1;ratioP1;P1;durP2;ratioP2;P2;SDS_P1;SDS_P2;PMS_P1;PMS_P2;Temp;Humidity;BMP_temperature;BMP_pressure;BME280_temperature;BME280_humidity;BME280_pressure;Samples;Min_cycle;Max_cycle;Signal;HPM_P1;HPM_P2
2022/08/02 09:50:27;;;;;;;12.55;4.00;;;;;;;23.38;47.21;101605.53;5044823;27;1182201;-59
2022/08/02 09:52:56;;;;;;;8.77;2.17;;;;;;;23.40;47.12;101606.16;5062528;28;20093;-59
2022/08/02 09:55:22;;;;;;;4.32;2.00;;;;;;;23.45;47.03;101601.06;5062337;28;20017;-60
2022/08/02 09:57:47;;;;;;;5.10;1.55;;;;;;;23.49;47.28;101609.69;5044275;28;20028;-60
2022/08/02 10:00:12;;;;;;;3.00;1.88;;;;;;;23.53;47.22;101604.72;5062346;28;20876;-60
2022/08/02 10:02:38;;;;;;;2.35;1.40;;;;;;;23.55;47.15;101600.81;5044293;28;20017;-60
2022/08/02 10:05:04;;;;;;;2.85;1.58;;;;;;;23.61;47.05;101601.94;5062031;28;20047;-60
2022/08/02 10:07:30;;;;;;;1.65;1.27;;;;;;;23.63;47.01;101592.59;5062470;28;20492;-60
2022/08/02 10:09:55;;;;;;;3.05;1.70;;;;;;;23.69;46.84;101602.72;5044312;28;20060;-60
2022/08/02 10:12:22;;;;;;;1.85;1.38;;;;;;;23.71;46.96;101594.44;5061565;28;20061;-55
2022/08/02 10:14:49;;;;;;;2.83;1.45;;;;;;;23.73;46.77;101588.81;5061946;28;20029;-59
2022/08/02 10:17:15;;;;;;;1.65;1.20;;;;;;;23.80;46.79;101589.75;5062324;28;20076;-59
2022/08/02 10:19:41;;;;;;;2.78;1.55;;;;;;;23.83;46.65;101594.81;5043954;28;20029;-60
2022/08/02 10:22:11;;;;;;;2.50;1.60;;;;;;;23.85;46.40;101601.75;5062029;28;20025;-60
2022/08/02 10:24:38;;;;;;;1.83;1.15;;;;;;;23.88;46.32;101603.25;5061906;28;20021;-60
2022/08/02 10:27:06;;;;;;;3.10;1.83;;;;;;;23.89;46.42;101608.50;5061710;28;20021;-59
2022/08/02 10:29:37;;;;;;;1.80;1.25;;;;;;;23.92;46.28;101610.84;5043462;28;20025;-60
2022/08/02 10:32:06;;;;;;;2.75;1.50;;;;;;;23.88;46.25;101595.13;5043943;28;20071;-59
2022/08/02 10:34:39;;;;;;;2.00;1.38;;;;;;;23.95;46.31;101599.59;5043924;28;20029;-59
2022/08/02 10:37:05;;;;;;;1.73;1.10;;;;;;;23.98;46.17;101597.56;5061654;28;20025;-59
2022/08/02 10:39:38;;;;;;;2.45;1.40;;;;;;;23.99;46.09;101601.94;5043864;28;20045;-59
2022/08/02 10:42:04;;;;;;;3.38;1.45;;;;;;;23.98;46.21;101597.56;5061361;28;20021;-59
2022/08/02 10:44:33;;;;;;;2.30;1.30;;;;;;;24.02;46.25;101604.31;5061021;28;20088;-59
2022/08/02 10:47:14;;;;;;;2.33;1.70;;;;;;;24.03;45.99;101598.66;5061321;28;20051;-60
2022/08/02 10:49:59;;;;;;;1.55;1.10;;;;;;;24.03;46.12;101601.38;5061084;28;20045;-59
2022/08/02 10:52:30;;;;;;;2.03;1.30;;;;;;;24.04;46.13;101599.50;5061453;28;20054;-59
2022/08/02 10:55:00;;;;;;;2.53;1.42;;;;;;;24.03;46.11;101603.25;5061248;28;20040;-59
2022/08/02 10:57:27;;;;;;;1.70;1.10;;;;;;;24.06;46.28;101608.34;5060968;28;20029;-59
2022/08/02 10:59:57;;;;;;;4.25;1.55;;;;;;;24.06;45.95;101601.03;5058812;28;20085;-59
2022/08/02 11:02:40;;;;;;;2.08;1.38;;;;;;;24.06;45.95;101609.19;5030000;28;20470;-59
2022/08/02 11:05:14;;;;;;;1.73;1.20;;;;;;;24.06;46.23;101595.59;5047660;28;20022;-59
2022/08/02 11:07:46;;;;;;;2.15;1.38;;;;;;;24.08;46.01;101592.69;5047849;28;20029;-59
2022/08/02 11:10:32;;;;;;;1.60;1.15;;;;;;;24.08;46.06;101593.50;5047577;28;20033;-59
2022/08/02 11:13:00;;;;;;;1.98;1.35;;;;;;;24.08;46.12;101595.38;5047081;28;20028;-59
2022/08/02 11:15:25;;;;;;;2.90;1.30;;;;;;;24.10;46.20;101585.19;5047460;28;20029;-59
2022/08/02 11:17:55;;;;;;;2.28;1.30;;;;;;;24.10;46.09;101599.63;5047604;28;20036;-60
2022/08/02 11:20:22;;;;;;;1.20;0.85;;;;;;;24.10;46.29;101602.34;5047539;28;20041;-60
2022/08/02 11:22:48;;;;;;;3.03;1.63;;;;;;;24.11;46.20;101604.03;5047453;28;20401;-59
2022/08/02 11:25:23;;;;;;;1.70;1.17;;;;;;;24.12;46.51;101607.56;5029519;28;20037;-58
2022/08/02 11:27:48;;;;;;;2.05;1.55;;;;;;;24.12;46.19;101613.00;5047051;28;20533;-59
2022/08/02 11:30:14;;;;;;;2.17;1.23;;;;;;;24.11;46.54;101603.19;5045717;28;20030;-59
2022/08/02 11:32:40;;;;;;;2.05;1.27;;;;;;;24.13;46.60;101612.00;5027175;28;20471;-59
2022/08/02 11:35:06;;;;;;;2.95;1.60;;;;;;;24.13;46.49;101599.25;5027403;28;20032;-58
2022/08/02 11:37:39;;;;;;;2.47;1.20;;;;;;;24.15;46.39;101602.63;5027613;28;20081;-59
2022/08/02 11:40:07;;;;;;;1.92;1.30;;;;;;;24.15;46.55;101597.19;5027353;28;20101;-59
2022/08/02 11:42:35;;;;;;;1.83;1.35;;;;;;;24.17;46.59;101595.13;5026794;28;20529;-59
2022/08/02 11:45:00;;;;;;;1.50;1.40;;;;;;;24.17;46.59;101592.41;5027090;28;20053;-58
2022/08/02 11:47:26;;;;;;;1.42;1.20;;;;;;;24.19;46.59;101594.94;5027204;28;20057;-59
2022/08/02 11:49:51;;;;;;;2.55;1.20;;;;;;;24.18;46.59;101585.94;5027094;28;20058;-59
2022/08/02 11:52:17;;;;;;;2.45;1.17;;;;;;;24.19;46.50;101595.78;5027179;28;20061;-59
2022/08/02 11:54:42;;;;;;;2.22;1.90;;;;;;;24.21;46.76;101592.88;5026808;28;20026;-59
2022/08/02 11:57:16;;;;;;;2.80;1.63;;;;;;;24.22;46.61;101594.56;5027042;28;20022;-58
2022/08/02 11:59:43;;;;;;;1.58;1.42;;;;;;;24.23;46.49;101598.13;5026916;28;20045;-59
2022/08/02 12:02:08;;;;;;;2.50;1.45;;;;;;;24.23;46.78;101598.97;5026836;28;20046;-58
2022/08/02 12:04:34;;;;;;;2.17;1.55;;;;;;;24.25;46.68;101590.63;5026884;28;20030;-60
2022/08/02 12:07:00;;;;;;;3.10;1.27;;;;;;;24.24;46.73;101580.78;5026772;28;20104;-59
2022/08/02 12:09:27;;;;;;;2.92;1.70;;;;;;;24.28;47.00;101587.53;5026683;28;20022;-59
2022/08/02 12:11:53;;;;;;;1.70;1.40;;;;;;;24.28;46.81;101593.81;5025737;28;20026;-58
2022/08/02 12:14:19;;;;;;;1.90;1.17;;;;;;;24.24;46.82;101578.06;5026130;28;20030;-59
2022/08/02 12:19:28;;;;;;;2.45;1.80;;;;;;;24.32;46.81;101597.00;5026611;28;20105;-59
2022/08/02 12:22:10;;;;;;;1.88;1.60;;;;;;;24.34;46.88;101592.19;5026667;28;20034;-59
2022/08/02 12:24:37;;;;;;;3.25;1.63;;;;;;;24.35;46.96;101577.59;5026395;28;20044;-59
2022/08/02 12:27:02;;;;;;;2.05;1.60;;;;;;;24.35;46.87;101569.47;5008848;28;20041;-59
2022/08/02 12:29:33;;;;;;;1.65;1.27;;;;;;;24.37;46.97;101567.38;5026097;28;20034;-59
2022/08/02 12:31:59;;;;;;;2.38;1.73;;;;;;;24.36;47.05;101569.25;5042388;28;20077;-59
2022/08/02 12:34:28;;;;;;;1.50;1.40;;;;;;;24.38;47.10;101569.09;5046372;28;20364;-59
2022/08/02 12:37:01;;;;;;;1.58;1.15;;;;;;;24.38;47.12;101564.53;5046064;28;20021;-59
2022/08/02 12:39:33;;;;;;;1.35;1.25;;;;;;;24.39;47.22;101562.66;5045986;28;20021;-60
2022/08/02 12:41:58;;;;;;;2.70;1.65;;;;;;;24.39;47.03;101559.94;5045890;28;20036;-58
2022/08/02 12:44:24;;;;;;;2.17;1.25;;;;;;;24.40;47.11;101557.00;5045574;28;20017;-59
2022/08/02 12:47:04;;;;;;;2.90;1.70;;;;;;;24.42;47.08;101563.13;5028292;28;20033;-59
2022/08/02 12:49:29;;;;;;;1.80;1.38;;;;;;;24.42;47.18;101562.25;5045535;28;20060;-58
2022/08/02 12:51:55;;;;;;;2.03;1.40;;;;;;;24.43;47.05;101558.50;5045744;28;20041;-58
2022/08/02 12:54:37;;;;;;;2.03;1.60;;;;;;;24.44;47.28;101558.31;5045720;28;20044;-59
2022/08/02 12:57:13;;;;;;;2.33;1.13;;;;;;;24.46;47.22;101554.56;5045698;28;20030;-59
2022/08/02 12:59:39;;;;;;;1.92;1.45;;;;;;;24.47;47.28;101556.22;5045267;28;20021;-59
2022/08/02 13:02:09;;;;;;;2.67;1.55;;;;;;;24.49;47.50;101554.19;5045692;28;20040;-59
2022/08/02 13:04:35;;;;;;;1.63;1.40;;;;;;;24.50;47.41;101558.59;5045820;28;20026;-59
2022/08/02 13:07:00;;;;;;;2.08;1.45;;;;;;;24.48;47.46;101561.50;5045287;28;20032;-58
2022/08/02 13:09:26;;;;;;;1.80;1.50;;;;;;;24.47;47.72;101554.38;5045328;28;20021;-59
2022/08/02 13:11:51;;;;;;;1.98;1.50;;;;;;;24.49;47.47;101557.75;5045403;28;20048;-59
2022/08/02 13:14:16;;;;;;;2.13;1.60;;;;;;;24.50;47.57;101564.03;5044763;28;20040;-60
2022/08/02 13:16:43;;;;;;;2.53;1.75;;;;;;;24.50;47.65;101564.84;5045395;28;20039;-59
2022/08/02 13:19:09;;;;;;;1.58;1.40;;;;;;;24.42;47.57;101545.94;5045505;28;20025;-59
2022/08/02 13:21:34;;;;;;;2.45;1.65;;;;;;;24.51;47.62;101562.97;5045522;28;20027;-59
2022/08/02 13:23:59;;;;;;;1.85;1.52;;;;;;;24.50;47.74;101551.25;5044907;28;20029;-59
2022/08/02 13:26:25;;;;;;;2.13;1.40;;;;;;;24.50;47.69;101545.00;5045170;28;20021;-59
2022/08/02 13:28:50;;;;;;;2.10;1.30;;;;;;;24.51;47.63;101546.66;5044756;28;20071;-59
2022/08/02 13:31:16;;;;;;;2.50;1.50;;;;;;;24.48;47.75;101544.34;5035067;28;20112;-59
2022/08/02 13:33:41;;;;;;;1.58;1.30;;;;;;;24.51;47.54;101552.09;5025426;28;20463;-59
2022/08/02 13:36:06;;;;;;;2.20;1.48;;;;;;;24.51;47.75;101541.22;5025158;28;20088;-59
2022/08/02 13:38:31;;;;;;;1.70;1.27;;;;;;;24.51;47.73;101544.81;5025450;28;20057;-59
2022/08/02 13:41:09;;;;;;;1.80;1.50;;;;;;;24.51;47.65;101538.50;5025522;28;20048;-59
2022/08/02 13:43:36;;;;;;;3.17;1.42;;;;;;;24.44;47.61;101525.69;5024963;28;20475;-59
2022/08/02 13:46:03;;;;;;;2.67;1.40;;;;;;;24.51;47.75;101533.94;5025359;28;20472;-59
2022/08/02 13:48:28;;;;;;;2.30;1.40;;;;;;;24.51;47.79;101531.22;5007464;28;20037;-58
2022/08/02 13:50:53;;;;;;;1.92;1.30;;;;;;;24.52;47.85;101527.47;5025465;28;20022;-59
2022/08/02 13:53:19;;;;;;;2.85;1.67;;;;;;;24.52;47.93;101527.47;5025158;28;20029;-59
2022/08/02 13:55:44;;;;;;;1.75;1.50;;;;;;;24.48;47.76;101507.13;5025079;28;20018;-59
2022/08/02 13:58:09;;;;;;;1.80;1.70;;;;;;;24.53;47.93;101510.13;5024807;28;20038;-59
2022/08/02 14:00:34;;;;;;;2.38;1.80;;;;;;;24.55;48.09;101520.78;5007723;28;20084;-59
2022/08/02 14:03:00;;;;;;;2.35;1.70;;;;;;;24.54;47.90;101516.38;5024870;28;20387;-59
2022/08/02 14:05:29;;;;;;;1.85;1.60;;;;;;;24.55;47.99;101512.63;5024978;28;20080;-59
2022/08/02 14:07:55;;;;;;;2.50;1.38;;;;;;;24.53;47.98;101512.84;5025265;28;20018;-59
2022/08/02 14:10:21;;;;;;;2.03;1.65;;;;;;;24.48;48.00;101496.25;5025121;28;20054;-59
2022/08/02 14:12:46;;;;;;;1.75;1.23;;;;;;;24.56;48.10;101520.63;5024605;28;20495;-59
2022/08/02 14:15:11;;;;;;;1.63;1.40;;;;;;;24.56;47.90;101514.34;5024944;28;20029;-59
2022/08/02 14:17:37;;;;;;;1.50;1.30;;;;;;;24.57;48.04;101513.28;5024929;28;20104;-58
2022/08/02 14:20:02;;;;;;;1.40;1.30;;;;;;;24.57;48.07;101507.84;5024909;28;20022;-58
2022/08/02 14:22:29;;;;;;;1.95;1.20;;;;;;;24.58;47.89;101507.66;5025158;28;20030;-59
2022/08/02 14:24:54;;;;;;;1.58;1.38;;;;;;;24.58;48.01;101504.09;5024613;28;20531;-58
2022/08/02 14:27:19;;;;;;;1.35;0.98;;;;;;;24.58;47.88;101502.22;5024854;28;20029;-59
2022/08/02 14:29:47;;;;;;;1.75;1.35;;;;;;;24.59;47.92;101503.06;5024520;28;20499;-59
2022/08/02 14:32:12;;;;;;;1.58;1.33;;;;;;;24.54;47.99;101492.75;5042735;28;20048;-59
2022/08/02 14:34:37;;;;;;;2.15;1.60;;;;;;;24.53;47.92;101492.97;5044579;28;20025;-59
2022/08/02 14:37:03;;;;;;;2.78;1.35;;;;;;;24.61;47.96;101510.00;5047854;28;20025;-59
2022/08/02 14:39:28;;;;;;;1.55;1.10;;;;;;;24.62;47.81;101513.56;5048346;28;20032;-59
2022/08/02 14:41:53;;;;;;;1.30;1.10;;;;;;;24.62;47.75;101498.09;5048137;28;20021;-58
2022/08/02 14:44:18;;;;;;;1.70;1.20;;;;;;;24.62;48.01;101502.69;5047813;28;20028;-59
2022/08/02 14:46:44;;;;;;;2.28;1.17;;;;;;;24.63;48.15;101498.91;5048236;28;20017;-59
2022/08/02 14:49:09;;;;;;;2.30;1.50;;;;;;;24.63;47.78;101493.47;5047760;28;20091;-59
2022/08/02 14:51:36;;;;;;;2.67;1.30;;;;;;;24.63;47.90;101488.88;5048244;28;20077;-59
2022/08/02 14:54:06;;;;;;;2.92;1.65;;;;;;;24.55;47.85;101463.69;5048010;28;20394;-59
2022/08/02 14:56:31;;;;;;;2.38;1.23;;;;;;;24.65;47.67;101477.84;5048003;28;20026;-59
2022/08/02 14:58:57;;;;;;;1.30;1.00;;;;;;;24.64;47.88;101471.56;5047625;28;20021;-59
2022/08/02 15:01:22;;;;;;;2.03;1.20;;;;;;;24.64;47.91;101465.28;5048158;28;20463;-60
2022/08/02 15:03:47;;;;;;;1.40;1.20;;;;;;;24.65;47.89;101467.78;5047888;28;20026;-59
2022/08/02 15:06:13;;;;;;;1.40;1.27;;;;;;;24.57;48.04;101448.88;5047751;28;20036;-59
2022/08/02 15:08:38;;;;;;;2.08;1.40;;;;;;;24.66;47.92;101474.06;5047672;28;20032;-59
2022/08/02 15:11:03;;;;;;;1.13;1.02;;;;;;;24.65;47.96;101470.50;5047651;28;20057;-59
2022/08/02 15:13:28;;;;;;;1.83;1.23;;;;;;;24.67;48.12;101473.88;5047175;28;20029;-59
2022/08/02 15:15:54;;;;;;;1.88;1.13;;;;;;;24.67;48.10;101473.88;5047444;28;20025;-58
2022/08/02 15:18:19;;;;;;;1.10;0.90;;;;;;;24.68;48.03;101469.28;5047672;28;20101;-59
2022/08/02 15:20:45;;;;;;;1.05;0.85;;;;;;;24.69;48.12;101462.81;5047541;28;20029;-58
2022/08/02 15:23:14;;;;;;;1.52;1.00;;;;;;;24.70;48.12;101461.78;5047646;28;20155;-59
2022/08/02 15:25:39;;;;;;;;;;;;;;;24.69;47.95;101455.50;5047685;28;20124;-58
2022/08/02 15:28:05;;;;;;;2.13;0.98;;;;;;;24.71;48.00;101454.44;5047045;28;20380;-58
2022/08/02 15:30:32;;;;;;;2.40;1.15;;;;;;;24.72;48.00;101448.81;5043437;28;20025;-59
2022/08/02 15:32:57;;;;;;;1.10;1.00;;;;;;;24.72;48.12;101453.41;5027413;28;20085;-59
2022/08/02 15:35:23;;;;;;;1.25;0.90;;;;;;;24.73;48.18;101449.69;5027299;28;20033;-59
2022/08/02 15:37:48;;;;;;;2.03;1.00;;;;;;;24.73;48.12;101447.78;5027574;28;20478;-59
2022/08/02 15:40:13;;;;;;;2.13;1.23;;;;;;;24.74;48.27;101443.19;5027323;28;20520;-59
2022/08/02 15:42:38;;;;;;;2.03;1.00;;;;;;;24.75;48.34;101450.31;5026959;28;20030;-58
2022/08/02 15:45:04;;;;;;;1.30;0.93;;;;;;;24.75;48.20;101445.72;5027432;28;20025;-59
2022/08/02 15:47:29;;;;;;;1.58;1.15;;;;;;;24.76;48.20;101443.81;5027385;28;20387;-58
2022/08/02 15:49:55;;;;;;;2.20;1.35;;;;;;;24.77;48.20;101448.25;5026920;28;20084;-58
2022/08/02 15:52:20;;;;;;;1.23;0.90;;;;;;;24.78;48.26;101441.78;5027289;28;20061;-59
2022/08/02 15:54:45;;;;;;;1.70;1.20;;;;;;;24.79;48.28;101448.88;5026981;28;20118;-59
2022/08/02 15:57:10;;;;;;;1.80;0.90;;;;;;;24.76;48.30;101455.53;5027035;28;20097;-59
2022/08/02 15:59:35;;;;;;;2.65;1.15;;;;;;;24.79;48.35;101449.72;5026780;28;20038;-58
2022/08/02 16:02:01;;;;;;;1.25;0.98;;;;;;;24.80;48.29;101448.69;5027131;28;20029;-58
2022/08/02 16:04:27;;;;;;;1.20;1.00;;;;;;;24.81;48.51;101450.38;5027048;28;20022;-58
2022/08/02 16:06:54;;;;;;;1.13;0.82;;;;;;;24.81;48.20;101439.50;5026992;28;20033;-59
2022/08/02 16:09:19;;;;;;;1.55;1.10;;;;;;;24.83;48.31;101436.59;5026773;28;20032;-59
2022/08/02 16:11:45;;;;;;;1.70;1.10;;;;;;;24.80;48.27;101434.25;5026565;28;20025;-59
2022/08/02 16:14:10;;;;;;;1.17;0.95;;;;;;;24.84;48.31;101443.69;5026543;28;20022;-58
2022/08/02 16:16:36;;;;;;;1.83;1.02;;;;;;;24.84;48.49;101436.38;5026543;28;20475;-59
2022/08/02 16:19:03;;;;;;;1.30;1.00;;;;;;;24.82;48.32;101435.75;5026630;28;20022;-59
2022/08/02 16:21:28;;;;;;;1.20;0.93;;;;;;;24.85;48.36;101429.94;5026562;28;20110;-59
2022/08/02 16:23:57;;;;;;;1.27;0.82;;;;;;;24.86;48.35;101425.31;5026430;28;20030;-59
2022/08/02 16:26:28;;;;;;;;;;;;;;;24.86;48.37;101438.91;5026793;28;20033;-59
2022/08/02 16:28:54;;;;;;;1.27;0.98;;;;;;;24.87;48.30;101432.44;5026249;28;19940;-58
2022/08/02 16:31:19;;;;;;;1.63;1.10;;;;;;;24.79;48.39;101419.81;5037146;28;20034;-59
2022/08/02 16:33:44;;;;;;;1.50;1.13;;;;;;;24.87;48.38;101437.88;5046480;28;20091;-59
2022/08/02 16:36:11;;;;;;;1.20;0.90;;;;;;;24.87;48.52;101444.16;5046060;28;20089;-59
2022/08/02 16:38:36;;;;;;;1.55;1.15;;;;;;;24.88;48.35;101434.94;5046383;28;20029;-58
2022/08/02 16:41:02;;;;;;;2.40;1.10;;;;;;;24.88;48.47;101439.56;5046009;28;20076;-58
2022/08/02 16:43:27;;;;;;;1.33;1.00;;;;;;;24.84;48.35;101427.38;5045701;28;20021;-58
2022/08/02 16:45:52;;;;;;;2.45;0.93;;;;;;;24.89;48.34;101431.22;5045929;28;20036;-59
2022/08/02 16:48:17;;;;;;;1.63;1.00;;;;;;;24.90;48.44;101435.59;5045824;28;20035;-57
2022/08/02 16:50:43;;;;;;;1.08;0.88;;;;;;;24.90;48.47;101434.78;5045709;28;20390;-58
2022/08/02 16:53:09;;;;;;;1.73;1.10;;;;;;;24.91;48.46;101439.16;5046119;28;20029;-59
2022/08/02 16:55:34;;;;;;;2.90;1.10;;;;;;;24.92;48.38;101433.53;5045393;28;20021;-58
2022/08/02 16:57:59;;;;;;;1.63;1.00;;;;;;;24.92;48.36;101436.25;5044580;28;20025;-57
2022/08/02 17:00:25;;;;;;;2.75;0.98;;;;;;;24.93;48.48;101431.63;5045860;28;20022;-58
2022/08/02 17:02:50;;;;;;;1.98;0.90;;;;;;;24.92;48.54;101433.53;5045619;28;20033;-58
2022/08/02 17:05:15;;;;;;;1.33;1.13;;;;;;;24.93;48.30;101429.78;5045659;28;20100;-59
2022/08/02 17:07:41;;;;;;;2.17;0.98;;;;;;;24.94;48.38;101427.91;5045446;28;20029;-59
2022/08/02 17:10:07;;;;;;;2.50;1.13;;;;;;;24.94;48.47;101427.91;5045441;28;20022;-60
2022/08/02 17:12:33;;;;;;;1.08;0.77;;;;;;;24.90;48.36;101427.44;5045506;28;20036;-59
2022/08/02 17:14:58;;;;;;;1.90;1.20;;;;;;;24.94;48.41;101422.47;5045227;28;20029;-60
2022/08/02 17:17:25;;;;;;;2.25;1.35;;;;;;;24.96;48.39;101431.25;5045438;28;20095;-58
2022/08/02 17:19:50;;;;;;;2.03;1.08;;;;;;;24.96;48.35;101427.69;5045418;28;20038;-59
2022/08/02 17:22:15;;;;;;;3.20;1.85;;;;;;;24.96;48.17;101423.09;5045529;28;20040;-59
2022/08/02 17:24:41;;;;;;;1.38;0.70;;;;;;;24.96;48.36;101424.97;5045316;28;20080;-58
2022/08/02 17:27:11;;;;;;;2.15;0.98;;;;;;;24.98;48.51;101433.78;5045311;28;20044;-58
2022/08/02 17:29:37;;;;;;;1.60;0.82;;;;;;;24.96;48.46;101422.25;5044944;28;20025;-59
2022/08/02 17:32:02;;;;;;;1.27;0.77;;;;;;;24.97;48.46;101426.66;5028767;28;20030;-58
2022/08/02 17:34:30;;;;;;;3.47;0.95;;;;;;;24.98;48.44;101433.78;5025535;28;20045;-58
2022/08/02 17:36:55;;;;;;;1.92;1.05;;;;;;;24.99;48.44;101438.19;5025479;28;20113;-60
2022/08/02 17:39:21;;;;;;;2.20;1.27;;;;;;;24.98;48.52;101431.91;5025408;28;20022;-59
2022/08/02 17:41:46;;;;;;;1.40;1.08;;;;;;;24.98;48.52;101433.78;5025205;28;20030;-60
2022/08/02 17:44:11;;;;;;;2.38;1.13;;;;;;;24.99;48.53;101435.47;5024993;28;20049;-60
2022/08/02 17:46:37;;;;;;;2.08;1.00;;;;;;;24.99;48.52;101432.75;5025172;28;20041;-59
2022/08/02 17:49:22;;;;;;;2.90;1.00;;;;;;;24.97;48.55;101432.94;5025185;28;20177;-59
2022/08/02 17:51:54;;;;;;;1.45;1.05;;;;;;;24.99;48.54;101435.47;5025350;28;20087;-59
2022/08/02 17:54:19;;;;;;;1.70;1.00;;;;;;;24.96;48.55;101433.97;5025086;28;20037;-58
2022/08/02 17:56:46;;;;;;;1.33;1.05;;;;;;;25.00;48.49;101434.44;5025003;28;20022;-60
2022/08/02 17:59:12;;;;;;;4.22;1.55;;;;;;;24.99;48.63;101438.19;5024627;28;20048;-59
2022/08/02 18:01:39;;;;;;;1.50;0.90;;;;;;;24.92;48.61;101428.09;5025141;28;20050;-59
2022/08/02 18:04:04;;;;;;;3.08;0.90;;;;;;;24.97;48.70;101434.81;5025247;28;20018;-59
2022/08/02 18:06:29;;;;;;;1.48;0.98;;;;;;;24.96;48.96;101439.41;5024901;28;20030;-58
2022/08/02 18:08:55;;;;;;;1.20;0.90;;;;;;;24.99;48.70;101436.31;5025056;28;20025;-59
2022/08/02 18:11:20;;;;;;;3.00;1.02;;;;;;;24.99;48.65;101438.19;5027374;28;20033;-58
2022/08/02 18:13:46;;;;;;;2.42;0.90;;;;;;;24.99;48.71;101432.75;5028654;28;20029;-59
2022/08/02 18:16:11;;;;;;;1.63;0.80;;;;;;;24.99;48.66;101439.03;5028833;28;20033;-59
2022/08/02 18:18:36;;;;;;;1.42;1.10;;;;;;;24.98;48.63;101440.06;5029147;28;20037;-60
2022/08/02 18:21:02;;;;;;;2.05;1.10;;;;;;;24.98;48.67;101433.78;5028966;28;20033;-58
2022/08/02 18:23:27;;;;;;;1.95;1.10;;;;;;;24.92;48.53;101417.19;5028944;28;20032;-59
2022/08/02 18:25:52;;;;;;;2.03;1.02;;;;;;;24.93;48.56;101426.19;5028717;28;20084;-59
2022/08/02 18:28:18;;;;;;;1.30;0.88;;;;;;;25.00;48.59;101439.88;5028364;28;20029;-60
2022/08/02 18:30:43;;;;;;;2.35;1.02;;;;;;;24.98;48.75;101436.50;5034457;28;20022;-58
2022/08/02 18:33:08;;;;;;;0.88;0.70;;;;;;;24.99;48.65;101435.47;5048444;28;20084;-59
2022/08/02 18:35:34;;;;;;;1.00;0.80;;;;;;;24.99;48.66;101438.19;5048603;28;20100;-56
2022/08/02 18:38:02;;;;;;;2.42;0.80;;;;;;;24.98;48.73;101439.22;5048306;28;20063;-59
2022/08/02 18:40:28;;;;;;;1.55;1.00;;;;;;;24.99;48.71;101439.03;5048307;28;20043;-59
2022/08/02 18:42:53;;;;;;;2.50;1.00;;;;;;;24.99;48.63;101438.19;5047711;28;20022;-59
2022/08/02 18:45:18;;;;;;;1.88;1.00;;;;;;;24.99;48.74;101447.19;5048561;28;20026;-58
2022/08/02 18:47:44;;;;;;;2.17;0.98;;;;;;;24.98;48.94;101434.63;5030573;28;20086;-58
2022/08/02 18:50:09;;;;;;;2.15;1.10;;;;;;;24.96;48.75;101439.41;5048037;28;20041;-59
2022/08/02 18:52:36;;;;;;;1.33;1.00;;;;;;;24.98;48.73;101433.78;5048262;28;20029;-58
2022/08/02 18:55:02;;;;;;;1.40;0.93;;;;;;;24.98;48.87;101440.06;5048079;28;20028;-58
2022/08/02 18:57:27;;;;;;;1.23;0.90;;;;;;;24.99;48.84;101440.91;5048277;28;20022;-59
2022/08/02 18:59:53;;;;;;;1.30;0.93;;;;;;;24.96;48.73;101436.69;5047672;28;20022;-59
2022/08/02 19:02:18;;;;;;;2.30;1.08;;;;;;;24.97;48.68;101440.25;5047917;28;20025;-59
2022/08/02 19:04:43;;;;;;;2.20;1.02;;;;;;;24.98;48.84;101437.34;5048208;28;20072;-58
2022/08/02 19:07:08;;;;;;;1.23;0.80;;;;;;;24.98;48.73;101434.63;5047925;28;20021;-59
2022/08/02 19:09:37;;;;;;;2.33;1.10;;;;;;;24.97;48.86;101432.09;5030057;28;20045;-59
2022/08/02 19:12:03;;;;;;;1.20;0.82;;;;;;;24.98;48.79;101433.78;5047834;28;20052;-59
2022/08/02 19:14:28;;;;;;;1.13;0.80;;;;;;;24.97;48.81;101435.66;5047179;28;20429;-60
2022/08/02 19:16:59;;;;;;;1.48;1.05;;;;;;;24.98;49.03;101433.78;5047523;28;20052;-59
2022/08/02 19:19:25;;;;;;;1.38;0.88;;;;;;;24.88;48.88;101415.91;5047637;28;20044;-59
2022/08/02 19:21:50;;;;;;;1.00;0.90;;;;;;;24.97;48.85;101429.38;5047171;28;20474;-59
2022/08/02 19:24:15;;;;;;;1.65;1.10;;;;;;;24.97;48.90;101429.38;5047493;28;20052;-59
2022/08/02 19:26:40;;;;;;;1.42;0.95;;;;;;;24.97;48.92;101435.66;5046602;28;20033;-59
2022/08/02 19:29:06;;;;;;;3.20;1.63;;;;;;;24.97;49.00;101432.94;5046875;28;20057;-59
2022/08/02 19:31:31;;;;;;;1.35;1.08;;;;;;;24.97;48.95;101432.09;5035192;28;20017;-58
2022/08/02 19:33:56;;;;;;;1.73;1.10;;;;;;;24.96;48.92;101433.97;5027463;28;20017;-59
2022/08/02 19:36:21;;;;;;;1.65;0.80;;;;;;;24.91;49.07;101433.72;5027528;28;20030;-59
2022/08/02 19:38:48;;;;;;;1.38;1.00;;;;;;;24.97;48.84;101440.25;5027568;28;20025;-59
2022/08/02 19:41:14;;;;;;;2.42;1.30;;;;;;;24.96;48.98;101444.03;5027448;28;20495;-59
2022/08/02 19:43:40;;;;;;;1.52;1.00;;;;;;;24.92;48.96;101447.13;5026938;28;20032;-58
2022/08/02 19:46:05;;;;;;;2.40;1.15;;;;;;;24.94;48.91;101449.66;5027296;28;20029;-59
2022/08/02 19:48:30;;;;;;;1.45;1.08;;;;;;;24.95;49.15;101448.63;5027256;28;20170;-59
2022/08/02 19:50:56;;;;;;;1.85;0.75;;;;;;;24.96;48.97;101457.63;5027213;28;20030;-58
2022/08/02 19:53:21;;;;;;;1.13;0.70;;;;;;;24.96;49.09;101455.75;5027313;28;20089;-58
2022/08/02 19:55:46;;;;;;;1.35;0.80;;;;;;;24.95;49.10;101454.06;5026901;28;20041;-59
2022/08/02 19:58:11;;;;;;;2.72;1.02;;;;;;;24.96;49.04;101460.34;5026924;28;20040;-59
2022/08/02 20:00:41;;;;;;;1.85;0.70;;;;;;;24.95;49.10;101467.66;5027146;28;20507;-59
2022/08/02 20:03:07;;;;;;;1.70;0.80;;;;;;;24.95;49.01;101462.22;5027129;28;20049;-59
2022/08/02 20:05:35;;;;;;;1.58;0.70;;;;;;;24.95;49.15;101462.22;5026899;28;20022;-59
2022/08/02 20:08:01;;;;;;;1.30;0.88;;;;;;;24.94;49.04;101464.09;5027003;28;20113;-59
2022/08/02 20:10:26;;;;;;;1.35;0.90;;;;;;;24.94;49.03;101466.00;5026692;28;20034;-59
2022/08/02 20:12:55;;;;;;;1.77;1.02;;;;;;;24.94;49.11;101472.28;5008853;28;20123;-58
2022/08/02 20:15:21;;;;;;;1.40;0.90;;;;;;;24.94;49.16;101466.00;5026822;28;20040;-59
2022/08/02 20:17:46;;;;;;;1.95;0.90;;;;;;;24.87;49.03;101460.47;5026765;28;20045;-60
2022/08/02 20:20:11;;;;;;;1.70;0.95;;;;;;;24.95;49.07;101470.38;5026471;28;20025;-58
2022/08/02 20:25:21;;;;;;;3.42;1.33;;;;;;;24.94;49.20;101466.00;5026415;28;20037;-59
2022/08/02 20:27:46;;;;;;;1.75;1.02;;;;;;;24.94;49.14;101474.16;5026825;28;20022;-57
2022/08/02 20:30:12;;;;;;;1.33;0.95;;;;;;;24.94;49.05;101468.72;5027318;28;20072;-59
2022/08/02 20:32:37;;;;;;;1.08;0.90;;;;;;;24.94;48.98;101474.16;5045845;28;20545;-59
2022/08/02 20:35:02;;;;;;;1.77;1.10;;;;;;;24.90;49.19;101473.69;5045875;28;20029;-59
2022/08/02 20:37:27;;;;;;;1.67;1.05;;;;;;;24.93;49.14;101478.75;5046374;28;20025;-59
2022/08/02 20:39:53;;;;;;;1.98;1.02;;;;;;;24.94;49.28;101479.59;5028405;28;20025;-59
2022/08/02 20:42:18;;;;;;;2.15;1.20;;;;;;;24.91;49.13;101471.81;5045975;28;20458;-59
2022/08/02 20:44:43;;;;;;;2.28;1.48;;;;;;;24.94;49.60;101487.75;5045443;28;20036;-59
2022/08/02 20:47:09;;;;;;;1.73;0.80;;;;;;;24.93;49.04;101475.16;5045905;28;20101;-59
2022/08/02 20:50:46;;;;;;;1.92;1.00;;;;;;;24.91;49.18;101474.53;5024595;28;20052;-58
2022/08/02 20:52:19;;;;;;;1.73;1.10;;;;;;;24.90;49.12;101470.97;5026014;28;20033;-59
2022/08/02 20:54:44;;;;;;;1.60;1.00;;;;;;;24.93;49.21;101475.16;5025837;28;20423;-59
2022/08/02 20:57:09;;;;;;;1.33;1.00;;;;;;;24.92;49.40;101482.47;5025979;28;20046;-58
2022/08/02 20:59:37;;;;;;;1.65;1.08;;;;;;;24.91;49.34;101475.38;5025598;28;20029;-59
2022/08/02 21:02:02;;;;;;;1.45;0.98;;;;;;;24.91;49.18;101472.66;5026088;28;20029;-59
2022/08/02 21:04:27;;;;;;;1.10;1.00;;;;;;;24.91;49.34;101479.97;5025929;28;20033;-59
2022/08/02 21:06:54;;;;;;;1.30;0.82;;;;;;;24.91;49.39;101474.53;5025530;28;20045;-57
2022/08/02 21:09:19;;;;;;;2.90;1.25;;;;;;;24.91;49.15;101475.38;5025851;28;20026;-59
2022/08/02 21:11:48;;;;;;;2.17;1.05;;;;;;;24.89;49.38;101474.75;5025692;28;20072;-58
2022/08/02 21:14:13;;;;;;;2.45;1.23;;;;;;;24.91;49.42;101472.66;5025554;28;20030;-58
2022/08/02 21:16:38;;;;;;;1.65;1.42;;;;;;;24.91;49.28;101478.09;5025459;28;20030;-59
2022/08/02 21:19:03;;;;;;;2.20;1.30;;;;;;;24.91;49.36;101471.81;5025722;28;20029;-58